Terminal Aerodrome Forecast
Issued by NWS North Platte, NE

Home | Current Version | Previous Version | Text Only | Print | Product List | Glossary On
Versions: 1 2 3 4 5 6 7 8 9 10 11 12 13 14 15 16 17 18 19 20 21 22
000
FTUS43 KLBF 071700
TAFVTN
TAF
KVTN 071720Z 0718/0818 15011KT P6SM SCT035 BKN050 BKN070
     FM080300 16008KT P6SM SCT080 BKN150
     FM081000 20005KT P6SM OVC080=

USA.gov is the U.S. government's official web portal to all federal, state and local government web resources and services.